createdAt,value
2019-03-26T00:00:47.565Z,53.56
2019-03-26T00:03:17.514Z,54.21
2019-03-26T00:05:47.423Z,54.59
2019-03-26T00:08:17.481Z,53.22
2019-03-26T00:10:47.345Z,53.69
2019-03-26T00:13:17.243Z,52.66
2019-03-26T00:15:47.189Z,52.88
2019-03-26T00:18:17.067Z,53.53
2019-03-26T00:20:46.964Z,52.88
2019-03-26T00:23:16.864Z,52.62
2019-03-26T00:25:46.739Z,52.47
2019-03-26T00:28:16.628Z,52.31
2019-03-26T00:30:46.591Z,52.39
2019-03-26T00:33:16.454Z,52.30
2019-03-26T00:35:46.350Z,52.13
2019-03-26T00:38:16.299Z,52.14
2019-03-26T00:40:46.185Z,50.59
2019-03-26T00:43:16.094Z,52.22
2019-03-26T00:45:45.959Z,52.31
2019-03-26T00:48:15.849Z,51.53
2019-03-26T00:50:45.736Z,49.37
2019-03-26T00:53:15.645Z,50.08
2019-03-26T00:55:45.516Z,48.98
2019-03-26T00:58:15.394Z,48.50
2019-03-26T01:00:46.007Z,49.83
2019-03-26T01:03:15.955Z,52.99
2019-03-26T01:05:45.917Z,49.42
2019-03-26T01:08:15.884Z,52.50
2019-03-26T01:10:45.769Z,48.96
2019-03-26T01:13:15.669Z,48.70
2019-03-26T01:15:45.548Z,48.17
2019-03-26T01:18:15.498Z,47.86
2019-03-26T01:20:45.368Z,47.52
2019-03-26T01:23:15.240Z,47.52
2019-03-26T01:25:45.117Z,47.63
2019-03-26T01:28:14.986Z,50.84
2019-03-26T01:30:44.862Z,55.77
2019-03-26T01:33:15.098Z,52.93
2019-03-26T01:35:44.998Z,54.68
2019-03-26T01:38:14.863Z,53.33
2019-03-26T01:40:44.726Z,51.80
2019-03-26T01:43:14.692Z,52.38
2019-03-26T01:45:44.658Z,52.28
2019-03-26T01:48:14.542Z,50.95
2019-03-26T01:50:44.423Z,51.54
2019-03-26T01:53:14.314Z,53.03
2019-03-26T01:55:44.180Z,50.46
2019-03-26T01:58:14.078Z,51.51
2019-03-26T02:00:44.020Z,52.15
2019-03-26T02:03:13.905Z,51.02
2019-03-26T02:05:43.787Z,53.35
2019-03-26T02:08:13.761Z,53.21
2019-03-26T02:10:43.825Z,52.61
2019-03-26T02:13:13.725Z,53.16
2019-03-26T02:15:43.634Z,51.19
2019-03-26T02:18:13.524Z,53.26
2019-03-26T02:20:43.415Z,53.31
2019-03-26T02:23:13.296Z,51.75
2019-03-26T02:25:43.240Z,52.89
2019-03-26T02:28:13.286Z,52.74
2019-03-26T02:30:43.253Z,51.61
2019-03-26T02:33:13.141Z,52.97
2019-03-26T02:35:43.027Z,52.67
2019-03-26T02:38:12.933Z,52.21
2019-03-26T02:40:42.908Z,49.71
2019-03-26T02:43:12.858Z,49.94
2019-03-26T02:45:42.759Z,51.36
2019-03-26T02:48:12.765Z,53.06
2019-03-26T02:50:42.759Z,52.85
2019-03-26T02:53:12.711Z,52.58
2019-03-26T02:55:42.599Z,52.12
2019-03-26T02:58:12.474Z,52.35
2019-03-26T03:00:42.354Z,52.32
2019-03-26T03:03:12.247Z,52.32
2019-03-26T03:05:42.121Z,52.22
2019-03-26T03:08:12.370Z,51.69
2019-03-26T03:10:42.238Z,52.08
2019-03-26T03:13:12.138Z,52.25
2019-03-26T03:15:42.037Z,51.65
2019-03-26T03:18:11.990Z,52.05
2019-03-26T03:20:41.874Z,51.58
2019-03-26T03:23:11.763Z,52.11
2019-03-26T03:25:41.651Z,51.99
2019-03-26T03:28:11.548Z,53.11
2019-03-26T03:30:41.429Z,50.45
2019-03-26T03:33:11.401Z,52.69
2019-03-26T03:35:52.022Z,51.93
2019-03-26T03:38:12.940Z,53.06
2019-03-26T03:40:42.831Z,52.75
2019-03-26T03:43:12.717Z,52.93
2019-03-26T03:45:42.670Z,52.81
2019-03-26T03:48:12.645Z,53.20
2019-03-26T03:50:44.375Z,52.39
2019-03-26T03:53:15.464Z,53.11
2019-03-26T03:55:45.714Z,52.72
2019-03-26T03:58:15.803Z,52.53
2019-03-26T04:00:45.694Z,52.30
2019-03-26T04:03:15.569Z,52.49
2019-03-26T04:05:45.467Z,51.89
2019-03-26T04:08:15.359Z,51.71
2019-03-26T04:10:45.232Z,51.59
2019-03-26T04:13:15.202Z,51.83
2019-03-26T04:15:45.153Z,51.75
2019-03-26T04:18:15.046Z,51.80
2019-03-26T04:20:44.942Z,51.56
2019-03-26T04:23:14.831Z,51.72
2019-03-26T04:25:44.743Z,51.57
2019-03-26T04:28:14.654Z,51.97
2019-03-26T04:30:44.811Z,52.12
2019-03-26T04:33:14.897Z,49.58
2019-03-26T04:35:44.793Z,48.86
2019-03-26T04:38:14.672Z,49.44
2019-03-26T04:40:44.617Z,49.06
2019-03-26T04:43:14.500Z,49.16
2019-03-26T04:45:44.418Z,51.15
2019-03-26T04:48:14.317Z,52.98
2019-03-26T04:50:44.219Z,52.97
2019-03-26T04:53:14.101Z,52.53
2019-03-26T04:55:43.969Z,52.25
2019-03-26T04:58:13.879Z,52.02
2019-03-26T05:00:43.753Z,52.47
2019-03-26T05:03:13.644Z,51.85
2019-03-26T05:05:43.618Z,52.55
2019-03-26T05:08:13.576Z,52.35
2019-03-26T05:10:43.454Z,52.46
2019-03-26T05:13:13.553Z,51.70
2019-03-26T05:15:43.430Z,50.35
2019-03-26T05:18:13.335Z,53.63
2019-03-26T05:20:43.202Z,51.26
2019-03-26T05:23:13.102Z,52.48
2019-03-26T05:25:42.964Z,52.81
2019-03-26T05:28:12.884Z,52.45
2019-03-26T05:30:42.837Z,52.71
2019-03-26T05:33:12.872Z,52.85
2019-03-26T05:35:42.794Z,53.26
2019-03-26T05:38:12.672Z,54.33
2019-03-26T05:40:42.543Z,54.67
2019-03-26T05:43:12.431Z,55.43
2019-03-26T05:45:42.337Z,55.80
2019-03-26T05:48:12.249Z,54.73
2019-03-26T05:50:42.123Z,54.99
2019-03-26T05:53:11.990Z,54.55
2019-03-26T05:55:41.898Z,55.28
2019-03-26T05:58:11.800Z,55.28
2019-03-26T06:00:41.668Z,54.65
2019-03-26T06:03:11.549Z,55.01
2019-03-26T06:05:41.448Z,55.08
2019-03-26T06:08:11.314Z,56.06
2019-03-26T06:10:41.236Z,56.33
2019-03-26T06:13:11.098Z,57.40
2019-03-26T06:15:40.995Z,57.57
2019-03-26T06:18:10.950Z,59.21
2019-03-26T06:20:40.856Z,56.12
2019-03-26T06:23:10.731Z,56.35
2019-03-26T06:25:40.683Z,57.34
2019-03-26T06:28:10.586Z,56.60
2019-03-26T06:30:40.485Z,56.37
2019-03-26T06:33:10.360Z,56.82
2019-03-26T06:35:40.289Z,56.30
2019-03-26T06:38:10.170Z,55.87
2019-03-26T06:40:40.053Z,56.18
2019-03-26T06:43:09.907Z,56.39
2019-03-26T06:45:39.821Z,55.17
2019-03-26T06:48:09.695Z,55.87
2019-03-26T06:50:39.605Z,55.94
2019-03-26T06:53:09.540Z,56.60
2019-03-26T06:55:39.435Z,56.16
2019-03-26T06:58:09.306Z,56.38
2019-03-26T07:00:39.281Z,57.42
2019-03-26T07:03:09.223Z,57.69
2019-03-26T07:05:39.179Z,57.35
2019-03-26T07:08:09.133Z,58.31
2019-03-26T07:10:39.005Z,57.89
2019-03-26T07:13:08.957Z,58.16
2019-03-26T07:15:38.872Z,57.87
2019-03-26T07:18:08.834Z,58.06
2019-03-26T07:20:38.810Z,57.53
2019-03-26T07:23:08.746Z,57.04
2019-03-26T07:25:38.666Z,57.85
2019-03-26T07:28:08.663Z,58.10
2019-03-26T07:30:42.561Z,58.63
2019-03-26T07:33:12.589Z,57.93
2019-03-26T07:35:42.862Z,58.16
2019-03-26T07:38:13.390Z,58.22
2019-03-26T07:40:43.247Z,58.76
2019-03-26T07:43:13.203Z,57.85
2019-03-26T07:45:43.073Z,57.26
2019-03-26T07:48:13.029Z,58.17
2019-03-26T07:50:42.925Z,57.94
2019-03-26T07:53:12.886Z,58.42
2019-03-26T07:55:43.983Z,58.42
2019-03-26T07:58:14.084Z,57.92
2019-03-26T08:00:43.897Z,57.93
2019-03-26T08:03:13.793Z,58.10
2019-03-26T08:05:43.690Z,57.36
2019-03-26T08:08:13.556Z,57.59
2019-03-26T08:10:43.442Z,57.73
2019-03-26T08:13:13.416Z,56.92
2019-03-26T08:15:43.290Z,56.22
2019-03-26T08:18:13.186Z,56.24
2019-03-26T08:20:43.114Z,56.95
2019-03-26T08:23:12.998Z,56.48
2019-03-26T08:25:42.911Z,56.87
2019-03-26T08:28:12.807Z,57.04
2019-03-26T08:30:42.680Z,56.82
2019-03-26T08:33:12.556Z,56.91
2019-03-26T08:35:42.627Z,57.04
2019-03-26T08:38:13.487Z,57.10
2019-03-26T08:40:43.538Z,57.12
2019-03-26T08:43:13.409Z,57.37
2019-03-26T08:45:43.299Z,57.21
2019-03-26T08:48:13.197Z,56.78
2019-03-26T08:50:43.095Z,56.95
2019-03-26T08:53:13.014Z,56.76
2019-03-26T08:55:42.938Z,57.43
2019-03-26T08:58:12.838Z,57.46
2019-03-26T09:00:42.716Z,57.12
2019-03-26T09:03:12.601Z,57.10
2019-03-26T09:05:42.501Z,54.38
2019-03-26T09:08:24.521Z,53.98
2019-03-26T09:10:51.576Z,56.27
2019-03-26T09:13:15.619Z,55.46
2019-03-26T09:15:45.615Z,55.35
2019-03-26T09:18:15.508Z,56.44
2019-03-26T09:20:45.390Z,57.12
2019-03-26T09:23:15.278Z,56.46
2019-03-26T09:25:45.160Z,56.90
2019-03-26T09:28:15.055Z,55.60
2019-03-26T09:30:45.011Z,54.99
2019-03-26T09:33:14.943Z,54.86
2019-03-26T09:35:46.428Z,53.23
2019-03-26T09:38:16.303Z,54.21
2019-03-26T09:40:46.173Z,55.04
2019-03-26T09:43:16.050Z,52.80
2019-03-26T09:45:45.935Z,54.17
2019-03-26T09:48:15.862Z,56.49
2019-03-26T09:50:47.603Z,54.25
2019-03-26T09:53:17.522Z,54.87
2019-03-26T09:55:47.458Z,52.76
2019-03-26T09:58:17.356Z,51.31
2019-03-26T10:00:47.463Z,50.29
2019-03-26T10:03:17.636Z,50.95
2019-03-26T10:05:47.613Z,49.67
2019-03-26T10:08:18.085Z,50.47
2019-03-26T10:10:49.591Z,51.15
2019-03-26T10:13:19.463Z,47.82
2019-03-26T10:15:49.425Z,49.06
2019-03-26T10:18:19.339Z,49.63
2019-03-26T10:20:49.252Z,46.39
2019-03-26T10:23:19.141Z,46.45
2019-03-26T10:25:49.095Z,46.25
2019-03-26T10:28:19.044Z,44.77
2019-03-26T10:30:49.712Z,46.37
2019-03-26T10:33:19.670Z,47.74
2019-03-26T10:35:49.562Z,44.39
2019-03-26T10:38:19.438Z,43.43
2019-03-26T10:40:49.398Z,47.62
2019-03-26T10:43:19.412Z,45.47
2019-03-26T10:45:49.470Z,45.77
2019-03-26T10:48:19.367Z,47.00
2019-03-26T10:50:49.260Z,47.04
2019-03-26T10:53:19.154Z,46.92
2019-03-26T10:55:49.019Z,47.38
2019-03-26T10:58:18.922Z,44.92
2019-03-26T11:00:49.116Z,46.79
2019-03-26T11:03:19.032Z,45.31
2019-03-26T11:05:48.922Z,44.59
2019-03-26T11:08:18.962Z,43.56
2019-03-26T11:10:48.919Z,42.24
2019-03-26T11:13:18.806Z,38.78
2019-03-26T11:15:48.707Z,41.65
2019-03-26T11:18:18.689Z,39.25
2019-03-26T11:21:01.391Z,39.50
2019-03-26T11:23:20.135Z,41.78
2019-03-26T11:25:50.011Z,46.40
2019-03-26T11:28:19.999Z,47.37
2019-03-26T11:30:49.941Z,46.55
2019-03-26T11:33:19.863Z,46.25
2019-03-26T11:35:49.852Z,47.19
2019-03-26T11:38:19.815Z,47.24
2019-03-26T11:40:49.797Z,47.21
2019-03-26T11:43:19.696Z,47.00
2019-03-26T11:45:50.375Z,44.54
2019-03-26T11:48:22.596Z,41.98
2019-03-26T11:50:53.341Z,39.49
2019-03-26T11:53:24.130Z,39.54
2019-03-26T11:55:54.973Z,46.45
2019-03-26T11:58:30.789Z,44.24
2019-03-26T12:00:58.482Z,42.08
2019-03-26T12:03:28.971Z,41.86
2019-03-26T12:05:58.874Z,38.96
2019-03-26T12:08:28.788Z,40.24
2019-03-26T12:11:00.025Z,38.39
2019-03-26T12:13:30.349Z,42.99
2019-03-26T12:16:00.234Z,43.80
2019-03-26T12:18:30.145Z,46.78
2019-03-26T12:21:00.347Z,46.67
2019-03-26T12:23:30.304Z,46.52
2019-03-26T12:26:00.225Z,46.79
2019-03-26T12:28:30.134Z,46.66
2019-03-26T12:31:00.024Z,46.61
2019-03-26T12:33:29.944Z,46.67
2019-03-26T12:35:59.825Z,46.27
2019-03-26T12:38:29.722Z,46.57
2019-03-26T12:40:59.675Z,46.67
2019-03-26T12:43:29.567Z,46.67
2019-03-26T12:46:01.820Z,46.59
2019-03-26T12:48:31.078Z,44.58
2019-03-26T12:51:01.032Z,47.91
2019-03-26T12:53:30.916Z,46.04
2019-03-26T12:56:00.835Z,45.35
2019-03-26T12:58:33.643Z,34.35
2019-03-26T13:01:02.643Z,41.54
2019-03-26T13:03:32.529Z,43.57
2019-03-26T13:06:02.526Z,43.98
2019-03-26T13:08:32.444Z,42.12
2019-03-26T13:11:02.335Z,40.71
2019-03-26T13:13:32.250Z,43.87
2019-03-26T13:16:02.160Z,38.70
2019-03-26T13:18:32.071Z,37.48
2019-03-26T13:21:01.981Z,41.76
2019-03-26T13:23:31.849Z,43.27
2019-03-26T13:26:01.729Z,37.26
2019-03-26T13:28:31.748Z,36.43
2019-03-26T13:31:01.687Z,35.72
2019-03-26T13:33:31.663Z,41.85
2019-03-26T13:36:01.534Z,43.77
2019-03-26T13:38:31.404Z,44.27
2019-03-26T13:41:01.302Z,42.05
2019-03-26T13:43:31.214Z,43.79
2019-03-26T13:46:01.093Z,35.98
2019-03-26T13:48:30.961Z,33.59
2019-03-26T13:51:01.151Z,40.75
2019-03-26T13:53:31.077Z,42.47
2019-03-26T13:56:00.981Z,43.69
2019-03-26T13:58:30.873Z,44.09
2019-03-26T14:01:00.941Z,41.99
2019-03-26T14:03:30.949Z,43.93
2019-03-26T14:06:00.884Z,44.24
2019-03-26T14:08:30.778Z,41.81
2019-03-26T14:11:00.779Z,44.19
2019-03-26T14:13:31.724Z,44.11
2019-03-26T14:16:01.607Z,44.23
2019-03-26T14:18:31.579Z,41.85
2019-03-26T14:21:01.566Z,42.47
2019-03-26T14:23:31.552Z,42.53
2019-03-26T14:26:01.435Z,40.42
2019-03-26T14:28:31.301Z,38.51
2019-03-26T14:31:01.191Z,36.12
2019-03-26T14:33:31.297Z,37.80
2019-03-26T14:36:01.219Z,43.22
2019-03-26T14:38:31.091Z,42.33
2019-03-26T14:41:01.060Z,43.62
2019-03-26T14:43:30.930Z,44.17
2019-03-26T14:46:00.833Z,43.96
2019-03-26T14:48:30.755Z,44.36
2019-03-26T14:51:00.668Z,40.36
2019-03-26T14:53:30.553Z,43.07
2019-03-26T14:56:00.466Z,43.75
2019-03-26T14:58:30.363Z,44.24
2019-03-26T15:01:00.264Z,42.86
2019-03-26T15:03:30.146Z,44.30
2019-03-26T15:06:00.014Z,44.37
2019-03-26T15:08:30.005Z,43.34
2019-03-26T15:11:08.061Z,44.09
2019-03-26T15:13:31.543Z,43.87
2019-03-26T15:16:01.419Z,44.12
2019-03-26T15:18:31.290Z,44.06
2019-03-26T15:21:01.203Z,41.14
2019-03-26T15:23:31.090Z,43.51
2019-03-26T15:26:00.972Z,43.92
2019-03-26T15:28:30.873Z,43.67
2019-03-26T15:31:00.838Z,44.02
2019-03-26T15:33:33.691Z,43.56
2019-03-26T15:36:02.282Z,43.81
2019-03-26T15:38:32.449Z,43.77
2019-03-26T15:41:02.350Z,43.74
2019-03-26T15:43:32.323Z,43.74
2019-03-26T15:46:02.235Z,43.79
2019-03-26T15:48:32.100Z,43.10
2019-03-26T15:51:01.970Z,43.77
2019-03-26T15:53:33.802Z,43.90
2019-03-26T15:56:03.830Z,44.08
2019-03-26T15:58:33.739Z,44.01
2019-03-26T16:01:03.622Z,43.29
2019-03-26T16:03:33.513Z,43.96
2019-03-26T16:06:03.860Z,44.33
2019-03-26T16:08:35.998Z,43.38
2019-03-26T16:11:05.410Z,43.01
2019-03-26T16:13:35.848Z,44.12
2019-03-26T16:16:05.972Z,44.29
2019-03-26T16:18:35.866Z,43.59
2019-03-26T16:21:05.823Z,44.29
2019-03-26T16:23:35.746Z,44.52
2019-03-26T16:26:05.709Z,44.29
2019-03-26T16:28:35.631Z,43.88
2019-03-26T16:31:05.513Z,44.67
2019-03-26T16:33:35.435Z,44.87
2019-03-26T16:36:05.428Z,44.58
2019-03-26T16:38:35.345Z,44.09
2019-03-26T16:41:05.332Z,44.82
2019-03-26T16:43:35.341Z,43.37
2019-03-26T16:46:05.302Z,44.57
2019-03-26T16:48:35.232Z,44.63
2019-03-26T16:51:05.194Z,45.05
2019-03-26T16:53:35.071Z,45.14
2019-03-26T16:56:04.983Z,45.04
2019-03-26T16:58:34.905Z,45.10
2019-03-26T17:01:04.855Z,45.10
2019-03-26T17:03:34.819Z,45.13
2019-03-26T17:06:04.756Z,44.95
2019-03-26T17:08:34.734Z,45.14
2019-03-26T17:11:04.615Z,44.57
2019-03-26T17:13:34.528Z,43.48
2019-03-26T17:16:05.805Z,45.21
2019-03-26T17:18:35.867Z,45.04
2019-03-26T17:21:05.937Z,43.88
2019-03-26T17:23:35.834Z,45.45
2019-03-26T17:26:05.731Z,45.05
2019-03-26T17:28:35.633Z,45.12
2019-03-26T17:31:05.587Z,45.57
2019-03-26T17:33:35.467Z,45.54
2019-03-26T17:36:05.592Z,45.48
2019-03-26T17:38:35.483Z,40.22
2019-03-26T17:41:05.557Z,41.22
2019-03-26T17:43:35.449Z,39.28
2019-03-26T17:46:05.397Z,38.47
2019-03-26T17:48:35.293Z,43.15
2019-03-26T17:51:05.242Z,42.73
2019-03-26T17:53:35.124Z,43.61
2019-03-26T17:56:05.157Z,44.39
2019-03-26T17:58:35.062Z,43.89
2019-03-26T18:01:05.076Z,40.63
2019-03-26T18:03:35.033Z,45.57
2019-03-26T18:06:05.015Z,42.04
2019-03-26T18:08:34.891Z,45.53
2019-03-26T18:11:04.841Z,41.05
2019-03-26T18:13:34.751Z,40.09
2019-03-26T18:16:04.719Z,45.00
2019-03-26T18:18:34.590Z,41.24
2019-03-26T18:21:04.568Z,43.41
2019-03-26T18:23:34.446Z,42.01
2019-03-26T18:26:04.501Z,45.96
2019-03-26T18:28:34.407Z,45.73
2019-03-26T18:31:04.312Z,44.51
2019-03-26T18:33:34.198Z,44.11
2019-03-26T18:36:04.088Z,46.57
2019-03-26T18:38:33.974Z,46.67
2019-03-26T18:41:04.030Z,45.20
2019-03-26T18:43:33.948Z,43.55
2019-03-26T18:46:03.829Z,44.54
2019-03-26T18:48:33.761Z,44.06
2019-03-26T18:51:03.642Z,44.62
2019-03-26T18:53:33.619Z,46.56
2019-03-26T18:56:03.519Z,44.96
2019-03-26T18:58:33.448Z,44.39
2019-03-26T19:01:03.324Z,45.49
2019-03-26T19:03:33.225Z,46.73
2019-03-26T19:06:03.111Z,46.64
2019-03-26T19:08:33.001Z,45.75
2019-03-26T19:11:02.908Z,46.74
2019-03-26T19:13:32.802Z,46.64
2019-03-26T19:16:02.679Z,43.79
2019-03-26T19:18:32.621Z,46.44
2019-03-26T19:21:02.957Z,46.77
2019-03-26T19:23:32.948Z,43.50
2019-03-26T19:26:02.834Z,45.87
2019-03-26T19:28:32.724Z,42.43
2019-03-26T19:31:02.619Z,44.20
2019-03-26T19:33:32.502Z,45.61
2019-03-26T19:36:02.400Z,45.69
2019-03-26T19:38:32.271Z,43.73
2019-03-26T19:41:02.169Z,45.83
2019-03-26T19:43:32.076Z,46.64
2019-03-26T19:46:01.995Z,45.83
2019-03-26T19:48:31.881Z,45.26
2019-03-26T19:51:01.856Z,44.58
2019-03-26T19:53:31.747Z,44.94
2019-03-26T19:56:01.655Z,42.98
2019-03-26T19:58:31.561Z,42.51
2019-03-26T20:01:01.523Z,44.52
2019-03-26T20:03:31.401Z,41.89
2019-03-26T20:06:12.768Z,40.93
2019-03-26T20:08:33.060Z,41.78
2019-03-26T20:11:02.937Z,44.30
2019-03-26T20:13:32.911Z,41.60
2019-03-26T20:16:02.830Z,42.53
2019-03-26T20:18:32.710Z,42.99
2019-03-26T20:21:02.993Z,43.30
2019-03-26T20:23:32.875Z,42.55
2019-03-26T20:26:02.759Z,41.41
2019-03-26T20:28:35.576Z,41.42
2019-03-26T20:31:05.559Z,45.56
2019-03-26T20:33:35.477Z,44.68
2019-03-26T20:36:05.471Z,41.53
2019-03-26T20:38:35.385Z,44.94
2019-03-26T20:41:05.344Z,43.12
2019-03-26T20:43:37.371Z,41.23
2019-03-26T20:46:07.007Z,42.09
2019-03-26T20:48:36.948Z,41.67
2019-03-26T20:51:06.941Z,43.33
2019-03-26T20:53:36.867Z,44.55
2019-03-26T20:56:06.830Z,41.64
2019-03-26T20:58:36.790Z,43.02
2019-03-26T21:01:06.700Z,42.44
2019-03-26T21:03:36.664Z,41.97
2019-03-26T21:06:06.574Z,45.91
2019-03-26T21:08:36.471Z,41.98
2019-03-26T21:11:06.393Z,42.30
2019-03-26T21:13:36.368Z,41.85
2019-03-26T21:16:06.255Z,43.35
2019-03-26T21:18:36.153Z,43.98
2019-03-26T21:21:06.362Z,42.10
2019-03-26T21:23:36.324Z,42.13
2019-03-26T21:26:06.331Z,42.43
2019-03-26T21:28:36.345Z,42.88
2019-03-26T21:31:06.269Z,43.39
2019-03-26T21:33:36.237Z,43.44
2019-03-26T21:36:07.142Z,43.35
2019-03-26T21:38:37.029Z,43.85
2019-03-26T21:41:07.030Z,43.61
2019-03-26T21:43:36.985Z,43.30
2019-03-26T21:46:06.863Z,43.37
2019-03-26T21:48:36.791Z,43.08
2019-03-26T21:51:06.761Z,42.94
2019-03-26T21:53:36.708Z,42.91
2019-03-26T21:56:07.200Z,42.89
2019-03-26T21:58:37.097Z,45.47
2019-03-26T22:01:07.027Z,42.96
2019-03-26T22:03:36.932Z,43.17
2019-03-26T22:06:06.822Z,43.55
2019-03-26T22:08:36.741Z,43.46
2019-03-26T22:11:06.738Z,42.84
2019-03-26T22:13:36.664Z,49.17
2019-03-26T22:16:06.645Z,44.22
2019-03-26T22:18:36.546Z,44.36
2019-03-26T22:21:06.510Z,46.84
2019-03-26T22:23:36.404Z,44.28
2019-03-26T22:26:06.281Z,43.46
2019-03-26T22:28:36.167Z,43.56
2019-03-26T22:31:06.155Z,44.90
2019-03-26T22:33:36.066Z,45.17
2019-03-26T22:36:05.978Z,45.74
2019-03-26T22:38:35.902Z,48.64
2019-03-26T22:41:05.793Z,45.11
2019-03-26T22:43:35.695Z,46.34
2019-03-26T22:46:05.687Z,48.39
2019-03-26T22:48:35.692Z,48.79
2019-03-26T22:51:05.620Z,49.63
2019-03-26T22:53:35.544Z,50.44
2019-03-26T22:56:05.440Z,49.40
2019-03-26T22:58:35.333Z,49.32
2019-03-26T23:01:06.018Z,49.13
2019-03-26T23:03:36.001Z,50.00
2019-03-26T23:06:06.048Z,50.59
2019-03-26T23:08:35.941Z,49.79
2019-03-26T23:11:05.864Z,49.18
2019-03-26T23:13:35.775Z,49.98
2019-03-26T23:16:05.981Z,48.96
2019-03-26T23:18:35.903Z,50.58
2019-03-26T23:21:05.888Z,49.73
2019-03-26T23:23:35.797Z,50.91
2019-03-26T23:26:05.845Z,51.77
2019-03-26T23:28:35.773Z,49.74
2019-03-26T23:31:05.700Z,50.71
2019-03-26T23:33:35.591Z,50.67
2019-03-26T23:36:05.515Z,50.16
2019-03-26T23:38:35.414Z,51.43
2019-03-26T23:41:05.422Z,51.90
2019-03-26T23:43:35.321Z,52.52
2019-03-26T23:46:05.288Z,52.49
2019-03-26T23:48:35.177Z,52.55
2019-03-26T23:51:05.212Z,53.24
2019-03-26T23:53:35.134Z,53.13
2019-03-26T23:56:05.363Z,53.68
2019-03-26T23:58:35.309Z,54.66
